sensor_id;sensor_type;location;lat;lon;timestamp;noise_LAeq;noise_LA_min;noise_LA_max;noise_LA01;noise_LA95
66747;Laerm;53658;50.742;10.864;2023-07-13T00:00:05;40.03;37.32;45.45;;
66747;Laerm;53658;50.742;10.864;2023-07-13T00:02:38;40.04;36.91;49.59;;
66747;Laerm;53658;50.742;10.864;2023-07-13T00:05:04;39.89;37.32;48.05;;
66747;Laerm;53658;50.742;10.864;2023-07-13T00:07:32;39.80;36.69;43.19;;
66747;Laerm;53658;50.742;10.864;2023-07-13T00:09:58;39.70;37.32;42.41;;
66747;Laerm;53658;50.742;10.864;2023-07-13T00:14:53;39.69;37.12;41.75;;
66747;Laerm;53658;50.742;10.864;2023-07-13T00:17:18;39.65;36.91;42.19;;
66747;Laerm;53658;50.742;10.864;2023-07-13T00:19:44;39.61;37.12;42.09;;
66747;Laerm;53658;50.742;10.864;2023-07-13T00:22:11;39.59;36.77;42.29;;
66747;Laerm;53658;50.742;10.864;2023-07-13T00:24:37;39.60;37.12;41.89;;
66747;Laerm;53658;50.742;10.864;2023-07-13T00:27:10;39.61;36.91;42.03;;
66747;Laerm;53658;50.742;10.864;2023-07-13T00:29:37;39.70;37.32;42.82;;
66747;Laerm;53658;50.742;10.864;2023-07-13T00:32:05;39.73;37.32;43.24;;
66747;Laerm;53658;50.742;10.864;2023-07-13T00:34:31;39.83;36.91;44.47;;
66747;Laerm;53658;50.742;10.864;2023-07-13T00:36:57;39.92;37.52;42.16;;
66747;Laerm;53658;50.742;10.864;2023-07-13T00:39:23;40.05;37.70;44.73;;
66747;Laerm;53658;50.742;10.864;2023-07-13T00:41:50;40.03;37.70;44.07;;
66747;Laerm;53658;50.742;10.864;2023-07-13T00:44:18;40.10;37.52;54.07;;
66747;Laerm;53658;50.742;10.864;2023-07-13T00:46:45;40.15;37.53;45.42;;
66747;Laerm;53658;50.742;10.864;2023-07-13T00:49:16;40.25;37.32;55.57;;
66747;Laerm;53658;50.742;10.864;2023-07-13T00:52:02;40.36;37.32;54.38;;
66747;Laerm;53658;50.742;10.864;2023-07-13T00:54:39;40.26;37.88;48.48;;
66747;Laerm;53658;50.742;10.864;2023-07-13T00:57:14;40.60;36.91;54.81;;
66747;Laerm;53658;50.742;10.864;2023-07-13T00:59:46;41.32;38.37;54.94;;
66747;Laerm;53658;50.742;10.864;2023-07-13T01:02:13;40.57;37.52;55.40;;
66747;Laerm;53658;50.742;10.864;2023-07-13T01:04:39;40.31;38.21;42.29;;
66747;Laerm;53658;50.742;10.864;2023-07-13T01:07:07;40.24;37.53;42.82;;
66747;Laerm;53658;50.742;10.864;2023-07-13T01:09:33;40.17;37.70;43.39;;
66747;Laerm;53658;50.742;10.864;2023-07-13T01:12:00;40.23;38.05;44.97;;
66747;Laerm;53658;50.742;10.864;2023-07-13T01:14:26;40.28;38.21;42.53;;
66747;Laerm;53658;50.742;10.864;2023-07-13T01:16:53;40.21;37.70;42.64;;
66747;Laerm;53658;50.742;10.864;2023-07-13T01:22:13;40.23;38.05;44.58;;
66747;Laerm;53658;50.742;10.864;2023-07-13T01:24:41;40.22;38.21;42.16;;
66747;Laerm;53658;50.742;10.864;2023-07-13T01:27:10;40.15;37.70;43.99;;
66747;Laerm;53658;50.742;10.864;2023-07-13T01:29:40;40.16;37.70;42.47;;
66747;Laerm;53658;50.742;10.864;2023-07-13T01:32:15;40.23;37.70;42.35;;
66747;Laerm;53658;50.742;10.864;2023-07-13T01:34:41;40.05;37.70;41.89;;
66747;Laerm;53658;50.742;10.864;2023-07-13T01:37:09;40.15;37.70;42.29;;
66747;Laerm;53658;50.742;10.864;2023-07-13T01:39:35;40.07;38.02;42.09;;
66747;Laerm;53658;50.742;10.864;2023-07-13T01:42:02;40.06;38.05;44.07;;
66747;Laerm;53658;50.742;10.864;2023-07-13T01:44:28;40.02;37.70;47.14;;
66747;Laerm;53658;50.742;10.864;2023-07-13T01:46:54;40.19;37.52;57.12;;
66747;Laerm;53658;50.742;10.864;2023-07-13T01:49:20;40.01;37.70;44.31;;
66747;Laerm;53658;50.742;10.864;2023-07-13T01:51:46;39.94;37.70;42.03;;
66747;Laerm;53658;50.742;10.864;2023-07-13T01:54:12;39.89;37.32;41.96;;
66747;Laerm;53658;50.742;10.864;2023-07-13T01:56:38;39.89;37.88;42.82;;
66747;Laerm;53658;50.742;10.864;2023-07-13T01:59:05;39.85;37.32;41.61;;
66747;Laerm;53658;50.742;10.864;2023-07-13T02:01:31;39.88;36.91;42.22;;
66747;Laerm;53658;50.742;10.864;2023-07-13T02:03:57;39.99;37.52;44.19;;
66747;Laerm;53658;50.742;10.864;2023-07-13T02:06:23;40.08;37.70;42.53;;
66747;Laerm;53658;50.742;10.864;2023-07-13T02:08:49;39.98;37.70;42.29;;
66747;Laerm;53658;50.742;10.864;2023-07-13T02:11:14;39.92;37.32;41.68;;
66747;Laerm;53658;50.742;10.864;2023-07-13T02:13:40;39.92;37.32;42.79;;
66747;Laerm;53658;50.742;10.864;2023-07-13T02:16:06;40.00;37.52;48.98;;
66747;Laerm;53658;50.742;10.864;2023-07-13T02:18:32;39.88;37.52;41.61;;
66747;Laerm;53658;50.742;10.864;2023-07-13T02:20:58;39.88;37.70;41.75;;
66747;Laerm;53658;50.742;10.864;2023-07-13T02:23:24;39.91;37.70;43.99;;
66747;Laerm;53658;50.742;10.864;2023-07-13T02:25:55;39.90;37.70;41.81;;
66747;Laerm;53658;50.742;10.864;2023-07-13T02:28:21;39.97;37.70;43.77;;
66747;Laerm;53658;50.742;10.864;2023-07-13T02:30:47;39.95;37.52;41.75;;
66747;Laerm;53658;50.742;10.864;2023-07-13T02:33:12;39.91;37.70;41.89;;
66747;Laerm;53658;50.742;10.864;2023-07-13T02:35:38;39.86;37.32;44.62;;
66747;Laerm;53658;50.742;10.864;2023-07-13T02:38:04;39.93;37.52;50.37;;
66747;Laerm;53658;50.742;10.864;2023-07-13T02:40:30;39.85;37.32;42.03;;
66747;Laerm;53658;50.742;10.864;2023-07-13T02:42:59;39.88;37.52;41.82;;
66747;Laerm;53658;50.742;10.864;2023-07-13T02:45:25;39.99;37.52;42.53;;
66747;Laerm;53658;50.742;10.864;2023-07-13T02:47:51;40.03;37.70;42.09;;
66747;Laerm;53658;50.742;10.864;2023-07-13T02:50:17;39.93;37.52;42.29;;
66747;Laerm;53658;50.742;10.864;2023-07-13T02:52:43;39.95;37.52;43.77;;
66747;Laerm;53658;50.742;10.864;2023-07-13T02:55:10;39.92;37.52;41.89;;
66747;Laerm;53658;50.742;10.864;2023-07-13T02:57:36;39.91;37.52;52.77;;
66747;Laerm;53658;50.742;10.864;2023-07-13T03:00:04;39.89;37.32;41.68;;
66747;Laerm;53658;50.742;10.864;2023-07-13T03:02:34;39.99;37.52;49.20;;
66747;Laerm;53658;50.742;10.864;2023-07-13T03:05:01;39.89;37.12;42.09;;
66747;Laerm;53658;50.742;10.864;2023-07-13T03:07:30;39.84;37.32;41.75;;
66747;Laerm;53658;50.742;10.864;2023-07-13T03:09:57;39.90;36.91;44.97;;
66747;Laerm;53658;50.742;10.864;2023-07-13T03:12:25;39.87;37.52;52.13;;
66747;Laerm;53658;50.742;10.864;2023-07-13T03:14:52;39.92;37.32;47.57;;
66747;Laerm;53658;50.742;10.864;2023-07-13T03:17:17;39.86;37.52;41.68;;
66747;Laerm;53658;50.742;10.864;2023-07-13T03:19:43;40.02;36.91;47.67;;
66747;Laerm;53658;50.742;10.864;2023-07-13T03:22:11;39.91;37.70;49.70;;
66747;Laerm;53658;50.742;10.864;2023-07-13T03:24:38;39.84;37.52;41.61;;
66747;Laerm;53658;50.742;10.864;2023-07-13T03:27:05;39.83;37.52;41.75;;
66747;Laerm;53658;50.742;10.864;2023-07-13T03:29:34;39.84;37.12;48.32;;
66747;Laerm;53658;50.742;10.864;2023-07-13T03:32:00;39.83;37.52;41.61;;
66747;Laerm;53658;50.742;10.864;2023-07-13T03:34:26;39.82;36.69;41.75;;
66747;Laerm;53658;50.742;10.864;2023-07-13T03:36:55;39.79;37.53;41.46;;
66747;Laerm;53658;50.742;10.864;2023-07-13T03:39:21;39.77;37.52;41.61;;
66747;Laerm;53658;50.742;10.864;2023-07-13T03:41:53;39.80;37.87;41.68;;
66747;Laerm;53658;50.742;10.864;2023-07-13T03:44:19;39.80;36.91;41.96;;
66747;Laerm;53658;50.742;10.864;2023-07-13T03:46:49;39.80;37.52;44.51;;
66747;Laerm;53658;50.742;10.864;2023-07-13T03:49:15;39.84;37.70;41.75;;
66747;Laerm;53658;50.742;10.864;2023-07-13T03:51:41;39.85;37.32;44.76;;
66747;Laerm;53658;50.742;10.864;2023-07-13T03:54:07;39.85;37.52;41.61;;
66747;Laerm;53658;50.742;10.864;2023-07-13T03:56:33;39.83;37.32;41.75;;
66747;Laerm;53658;50.742;10.864;2023-07-13T03:59:01;39.82;37.32;41.75;;
66747;Laerm;53658;50.742;10.864;2023-07-13T04:01:29;39.85;37.35;41.82;;
66747;Laerm;53658;50.742;10.864;2023-07-13T04:03:55;39.83;37.12;41.75;;
66747;Laerm;53658;50.742;10.864;2023-07-13T04:06:27;39.86;37.52;41.53;;
66747;Laerm;53658;50.742;10.864;2023-07-13T04:08:57;39.88;37.32;41.68;;
66747;Laerm;53658;50.742;10.864;2023-07-13T04:11:28;39.87;36.69;41.75;;
66747;Laerm;53658;50.742;10.864;2023-07-13T04:13:54;39.98;37.32;43.24;;
66747;Laerm;53658;50.742;10.864;2023-07-13T04:16:22;39.91;37.52;42.29;;
66747;Laerm;53658;50.742;10.864;2023-07-13T04:18:48;39.90;37.88;41.61;;
66747;Laerm;53658;50.742;10.864;2023-07-13T04:21:16;39.93;37.52;43.04;;
66747;Laerm;53658;50.742;10.864;2023-07-13T04:23:42;39.97;37.12;41.75;;
66747;Laerm;53658;50.742;10.864;2023-07-13T04:26:09;39.97;37.32;41.82;;
66747;Laerm;53658;50.742;10.864;2023-07-13T04:28:35;39.99;38.05;54.41;;
66747;Laerm;53658;50.742;10.864;2023-07-13T04:31:01;39.86;37.52;41.61;;
66747;Laerm;53658;50.742;10.864;2023-07-13T04:33:27;39.82;37.52;41.75;;
66747;Laerm;53658;50.742;10.864;2023-07-13T04:35:55;39.87;37.52;41.53;;
66747;Laerm;53658;50.742;10.864;2023-07-13T04:38:28;39.90;37.32;52.89;;
66747;Laerm;53658;50.742;10.864;2023-07-13T04:41:06;39.91;37.52;44.97;;
66747;Laerm;53658;50.742;10.864;2023-07-13T04:43:33;39.78;37.32;41.82;;
66747;Laerm;53658;50.742;10.864;2023-07-13T04:46:11;39.77;37.52;42.22;;
66747;Laerm;53658;50.742;10.864;2023-07-13T04:48:38;39.74;37.32;44.27;;
66747;Laerm;53658;50.742;10.864;2023-07-13T04:51:04;39.73;37.12;41.53;;
66747;Laerm;53658;50.742;10.864;2023-07-13T04:53:31;39.69;36.91;41.53;;
66747;Laerm;53658;50.742;10.864;2023-07-13T04:55:57;39.71;36.69;41.68;;
66747;Laerm;53658;50.742;10.864;2023-07-13T04:58:24;39.70;37.52;41.53;;
66747;Laerm;53658;50.742;10.864;2023-07-13T05:00:50;39.76;37.12;41.53;;
66747;Laerm;53658;50.742;10.864;2023-07-13T05:03:16;39.76;37.12;41.53;;
66747;Laerm;53658;50.742;10.864;2023-07-13T05:05:42;39.75;37.12;42.03;;
66747;Laerm;53658;50.742;10.864;2023-07-13T05:08:08;39.65;36.91;41.46;;
66747;Laerm;53658;50.742;10.864;2023-07-13T05:10:35;39.64;37.32;41.46;;
66747;Laerm;53658;50.742;10.864;2023-07-13T05:13:01;39.64;36.69;41.30;;
66747;Laerm;53658;50.742;10.864;2023-07-13T05:15:27;39.66;37.12;41.82;;
66747;Laerm;53658;50.742;10.864;2023-07-13T05:17:53;39.71;36.91;41.46;;
66747;Laerm;53658;50.742;10.864;2023-07-13T05:20:19;39.70;37.52;41.68;;
66747;Laerm;53658;50.742;10.864;2023-07-13T05:22:46;39.70;37.70;41.68;;
66747;Laerm;53658;50.742;10.864;2023-07-13T05:25:16;39.69;37.32;41.46;;
66747;Laerm;53658;50.742;10.864;2023-07-13T05:27:42;39.68;37.17;41.38;;
66747;Laerm;53658;50.742;10.864;2023-07-13T05:30:08;39.64;37.12;41.30;;
66747;Laerm;53658;50.742;10.864;2023-07-13T05:32:36;39.65;37.32;41.38;;
66747;Laerm;53658;50.742;10.864;2023-07-13T05:35:03;39.64;37.12;41.30;;
66747;Laerm;53658;50.742;10.864;2023-07-13T05:37:29;39.65;36.91;41.61;;
66747;Laerm;53658;50.742;10.864;2023-07-13T05:39:55;39.63;37.12;41.30;;
66747;Laerm;53658;50.742;10.864;2023-07-13T05:42:21;39.60;37.32;41.53;;
66747;Laerm;53658;50.742;10.864;2023-07-13T05:44:46;39.64;37.12;41.68;;
66747;Laerm;53658;50.742;10.864;2023-07-13T05:47:12;39.62;37.32;41.53;;
66747;Laerm;53658;50.742;10.864;2023-07-13T05:49:40;39.65;37.12;41.53;;
66747;Laerm;53658;50.742;10.864;2023-07-13T05:52:07;39.71;36.91;41.61;;
66747;Laerm;53658;50.742;10.864;2023-07-13T05:54:33;39.71;37.32;41.61;;
66747;Laerm;53658;50.742;10.864;2023-07-13T05:56:58;39.78;37.52;41.46;;
66747;Laerm;53658;50.742;10.864;2023-07-13T05:59:25;39.93;37.52;41.61;;
66747;Laerm;53658;50.742;10.864;2023-07-13T06:01:51;39.98;37.88;41.82;;
66747;Laerm;53658;50.742;10.864;2023-07-13T06:04:18;39.95;36.91;41.61;;
66747;Laerm;53658;50.742;10.864;2023-07-13T06:06:45;40.02;37.52;41.82;;
66747;Laerm;53658;50.742;10.864;2023-07-13T06:09:11;40.14;37.88;42.53;;
66747;Laerm;53658;50.742;10.864;2023-07-13T06:11:37;40.09;37.70;41.82;;
66747;Laerm;53658;50.742;10.864;2023-07-13T06:14:03;43.25;37.70;76.49;;
66747;Laerm;53658;50.742;10.864;2023-07-13T06:16:29;40.01;37.32;41.89;;
66747;Laerm;53658;50.742;10.864;2023-07-13T06:18:55;39.65;36.45;41.82;;
66747;Laerm;53658;50.742;10.864;2023-07-13T06:21:23;39.34;36.20;41.61;;
66747;Laerm;53658;50.742;10.864;2023-07-13T06:23:50;39.11;34.69;41.38;;
66747;Laerm;53658;50.742;10.864;2023-07-13T06:26:18;38.88;34.31;41.30;;
66747;Laerm;53658;50.742;10.864;2023-07-13T06:28:44;38.67;34.31;43.77;;
66747;Laerm;53658;50.742;10.864;2023-07-13T06:31:12;38.54;33.97;41.68;;
66747;Laerm;53658;50.742;10.864;2023-07-13T06:33:38;38.46;33.90;41.22;;
66747;Laerm;53658;50.742;10.864;2023-07-13T06:36:06;38.35;28.67;44.23;;
66747;Laerm;53658;50.742;10.864;2023-07-13T06:38:32;38.12;32.35;40.80;;
66747;Laerm;53658;50.742;10.864;2023-07-13T06:40:58;38.09;33.44;40.98;;
66747;Laerm;53658;50.742;10.864;2023-07-13T06:43:24;38.17;33.44;40.80;;
66747;Laerm;53658;50.742;10.864;2023-07-13T06:45:51;38.31;34.69;40.98;;
66747;Laerm;53658;50.742;10.864;2023-07-13T06:48:20;38.50;33.90;41.38;;
66747;Laerm;53658;50.742;10.864;2023-07-13T06:50:47;38.73;35.04;41.22;;
66747;Laerm;53658;50.742;10.864;2023-07-13T06:53:14;38.94;35.66;41.53;;
66747;Laerm;53658;50.742;10.864;2023-07-13T06:55:40;38.98;35.36;41.96;;
66747;Laerm;53658;50.742;10.864;2023-07-13T06:58:06;38.56;34.69;40.89;;
66747;Laerm;53658;50.742;10.864;2023-07-13T07:00:32;38.56;33.44;41.14;;
66747;Laerm;53658;50.742;10.864;2023-07-13T07:02:58;38.30;32.93;40.98;;
66747;Laerm;53658;50.742;10.864;2023-07-13T07:05:24;38.06;32.93;40.53;;
66747;Laerm;53658;50.742;10.864;2023-07-13T07:07:52;38.09;33.44;40.98;;
66747;Laerm;53658;50.742;10.864;2023-07-13T07:10:19;37.90;32.00;40.71;;
66747;Laerm;53658;50.742;10.864;2023-07-13T07:12:45;37.82;30.89;41.06;;
66747;Laerm;53658;50.742;10.864;2023-07-13T07:15:11;37.74;32.93;40.80;;
66747;Laerm;53658;50.742;10.864;2023-07-13T07:17:37;37.65;32.93;42.29;;
66747;Laerm;53658;50.742;10.864;2023-07-13T07:20:04;37.40;29.92;43.24;;
66747;Laerm;53658;50.742;10.864;2023-07-13T07:22:30;37.39;29.92;42.76;;
66747;Laerm;53658;50.742;10.864;2023-07-13T07:24:57;37.43;31.68;40.53;;
66747;Laerm;53658;50.742;10.864;2023-07-13T07:27:24;37.40;31.68;41.06;;
66747;Laerm;53658;50.742;10.864;2023-07-13T07:29:51;38.27;32.00;49.92;;
66747;Laerm;53658;50.742;10.864;2023-07-13T07:32:19;37.47;32.35;42.16;;
66747;Laerm;53658;50.742;10.864;2023-07-13T07:34:45;37.57;30.89;42.59;;
66747;Laerm;53658;50.742;10.864;2023-07-13T07:37:13;37.06;30.89;42.35;;
66747;Laerm;53658;50.742;10.864;2023-07-13T07:39:39;37.11;30.89;41.06;;
66747;Laerm;53658;50.742;10.864;2023-07-13T07:42:06;37.17;29.92;42.13;;
66747;Laerm;53658;50.742;10.864;2023-07-13T07:44:32;37.04;29.92;40.13;;
66747;Laerm;53658;50.742;10.864;2023-07-13T07:46:59;37.30;30.89;43.54;;
66747;Laerm;53658;50.742;10.864;2023-07-13T07:49:25;37.26;26.91;43.81;;
66747;Laerm;53658;50.742;10.864;2023-07-13T07:51:51;37.05;28.67;40.89;;
66747;Laerm;53658;50.742;10.864;2023-07-13T07:54:17;36.92;28.67;42.29;;
66747;Laerm;53658;50.742;10.864;2023-07-13T07:56:44;36.96;30.89;40.13;;
66747;Laerm;53658;50.742;10.864;2023-07-13T07:59:10;37.00;29.92;42.29;;
66747;Laerm;53658;50.742;10.864;2023-07-13T08:01:36;37.10;29.92;44.11;;
66747;Laerm;53658;50.742;10.864;2023-07-13T08:04:03;37.32;30.89;42.76;;
66747;Laerm;53658;50.742;10.864;2023-07-13T08:06:32;37.23;26.91;42.98;;
66747;Laerm;53658;50.742;10.864;2023-07-13T08:09:00;36.89;29.92;40.98;;
66747;Laerm;53658;50.742;10.864;2023-07-13T08:11:27;36.88;29.92;41.14;;
66747;Laerm;53658;50.742;10.864;2023-07-13T08:13:53;36.88;28.67;42.03;;
66747;Laerm;53658;50.742;10.864;2023-07-13T08:16:19;37.31;30.89;43.24;;
66747;Laerm;53658;50.742;10.864;2023-07-13T08:18:45;37.23;28.67;43.58;;
66747;Laerm;53658;50.742;10.864;2023-07-13T08:21:11;36.83;26.91;41.22;;
66747;Laerm;53658;50.742;10.864;2023-07-13T08:23:37;37.09;29.92;43.81;;
66747;Laerm;53658;50.742;10.864;2023-07-13T08:26:03;37.20;29.92;42.65;;
66747;Laerm;53658;50.742;10.864;2023-07-13T08:28:30;36.82;29.92;41.03;;
66747;Laerm;53658;50.742;10.864;2023-07-13T08:31:03;36.93;23.90;42.09;;
66747;Laerm;53658;50.742;10.864;2023-07-13T08:33:29;36.90;29.92;41.14;;
66747;Laerm;53658;50.742;10.864;2023-07-13T08:35:55;36.83;29.92;41.68;;
66747;Laerm;53658;50.742;10.864;2023-07-13T08:38:21;36.80;29.92;41.22;;
66747;Laerm;53658;50.742;10.864;2023-07-13T08:40:55;37.59;28.67;44.54;;
66747;Laerm;53658;50.742;10.864;2023-07-13T08:43:34;37.14;29.92;42.98;;
66747;Laerm;53658;50.742;10.864;2023-07-13T08:46:24;37.27;28.67;43.39;;
66747;Laerm;53658;50.742;10.864;2023-07-13T08:48:58;36.73;28.67;43.14;;
66747;Laerm;53658;50.742;10.864;2023-07-13T08:51:37;37.38;29.92;53.89;;
66747;Laerm;53658;50.742;10.864;2023-07-13T08:54:17;36.73;26.91;41.96;;
66747;Laerm;53658;50.742;10.864;2023-07-13T08:56:45;37.87;29.92;55.48;;
66747;Laerm;53658;50.742;10.864;2023-07-13T08:59:19;37.08;28.67;47.14;;
66747;Laerm;53658;50.742;10.864;2023-07-13T09:02:26;36.80;26.91;42.53;;
66747;Laerm;53658;50.742;10.864;2023-07-13T09:15:31;36.57;28.67;40.03;;
66747;Laerm;53658;50.742;10.864;2023-07-13T09:18:06;37.49;28.67;45.77;;
66747;Laerm;53658;50.742;10.864;2023-07-13T09:20:40;37.08;26.91;46.25;;
66747;Laerm;53658;50.742;10.864;2023-07-13T09:23:14;36.71;26.91;42.53;;
66747;Laerm;53658;50.742;10.864;2023-07-13T09:25:42;36.51;26.91;43.49;;
66747;Laerm;53658;50.742;10.864;2023-07-13T09:28:25;36.36;28.67;40.03;;
66747;Laerm;53658;50.742;10.864;2023-07-13T09:31:13;36.54;26.91;43.34;;
66747;Laerm;53658;50.742;10.864;2023-07-13T09:33:39;36.61;23.90;43.24;;
66747;Laerm;53658;50.742;10.864;2023-07-13T09:38:44;36.86;23.90;42.35;;
66747;Laerm;53658;50.742;10.864;2023-07-13T09:41:36;36.54;26.91;42.74;;
66747;Laerm;53658;50.742;10.864;2023-07-13T09:44:15;36.46;5.00;40.89;;
66747;Laerm;53658;50.742;10.864;2023-07-13T09:46:51;36.65;26.91;45.30;;
66747;Laerm;53658;50.742;10.864;2023-07-13T09:49:18;36.44;26.91;41.14;;
66747;Laerm;53658;50.742;10.864;2023-07-13T09:51:45;37.65;5.00;48.34;;
66747;Laerm;53658;50.742;10.864;2023-07-13T09:54:24;37.29;28.67;43.49;;
66747;Laerm;53658;50.742;10.864;2023-07-13T09:56:57;37.17;28.67;45.66;;
66747;Laerm;53658;50.742;10.864;2023-07-13T09:59:27;36.73;26.91;60.19;;
66747;Laerm;53658;50.742;10.864;2023-07-13T10:01:54;36.61;28.32;42.53;;
66747;Laerm;53658;50.742;10.864;2023-07-13T10:04:27;37.30;26.91;46.62;;
66747;Laerm;53658;50.742;10.864;2023-07-13T10:07:08;36.57;28.67;43.14;;
66747;Laerm;53658;50.742;10.864;2023-07-13T10:09:34;37.10;26.91;44.23;;
66747;Laerm;53658;50.742;10.864;2023-07-13T10:12:01;37.59;26.91;51.98;;
66747;Laerm;53658;50.742;10.864;2023-07-13T10:14:28;37.67;28.67;49.47;;
66747;Laerm;53658;50.742;10.864;2023-07-13T10:17:04;37.35;29.92;43.72;;
66747;Laerm;53658;50.742;10.864;2023-07-13T10:19:35;37.97;30.54;47.98;;
66747;Laerm;53658;50.742;10.864;2023-07-13T10:24:45;36.98;26.91;47.68;;
66747;Laerm;53658;50.742;10.864;2023-07-13T10:29:48;36.99;29.92;43.24;;
66747;Laerm;53658;50.742;10.864;2023-07-13T10:32:19;37.08;23.90;43.68;;
66747;Laerm;53658;50.742;10.864;2023-07-13T10:34:47;36.87;23.90;43.05;;
66747;Laerm;53658;50.742;10.864;2023-07-13T10:37:23;38.37;28.67;50.77;;
66747;Laerm;53658;50.742;10.864;2023-07-13T10:39:54;37.16;28.67;44.97;;
66747;Laerm;53658;50.742;10.864;2023-07-13T10:42:29;36.85;26.91;46.55;;
66747;Laerm;53658;50.742;10.864;2023-07-13T10:44:57;36.90;29.92;43.14;;
66747;Laerm;53658;50.742;10.864;2023-07-13T10:47:24;36.85;28.67;42.09;;
66747;Laerm;53658;50.742;10.864;2023-07-13T10:49:57;38.25;29.92;52.59;;
66747;Laerm;53658;50.742;10.864;2023-07-13T10:55:32;36.44;23.90;40.98;;
66747;Laerm;53658;50.742;10.864;2023-07-13T10:58:11;36.40;26.91;43.29;;
66747;Laerm;53658;50.742;10.864;2023-07-13T11:04:17;36.29;28.67;39.70;;
66747;Laerm;53658;50.742;10.864;2023-07-13T11:06:39;36.51;26.91;40.43;;
66747;Laerm;53658;50.742;10.864;2023-07-13T11:09:32;36.41;23.90;40.13;;
66747;Laerm;53658;50.742;10.864;2023-07-13T11:12:00;36.40;28.67;44.03;;
66747;Laerm;53658;50.742;10.864;2023-07-13T11:16:55;36.40;26.56;40.33;;
66747;Laerm;53658;50.742;10.864;2023-07-13T11:27:38;36.90;23.90;42.53;;
66747;Laerm;53658;50.742;10.864;2023-07-13T11:33:20;36.71;26.91;41.38;;
66747;Laerm;53658;50.742;10.864;2023-07-13T11:36:03;36.73;26.91;42.03;;
66747;Laerm;53658;50.742;10.864;2023-07-13T11:38:36;36.40;26.91;40.13;;
66747;Laerm;53658;50.742;10.864;2023-07-13T11:43:37;39.37;29.92;49.30;;
66747;Laerm;53658;50.742;10.864;2023-07-13T11:46:21;37.63;26.91;44.03;;
66747;Laerm;53658;50.742;10.864;2023-07-13T11:48:48;36.83;5.00;42.29;;
66747;Laerm;53658;50.742;10.864;2023-07-13T11:51:24;37.93;28.67;47.26;;
66747;Laerm;53658;50.742;10.864;2023-07-13T11:53:54;36.78;29.92;43.24;;
66747;Laerm;53658;50.742;10.864;2023-07-13T11:56:24;37.05;26.91;43.19;;
66747;Laerm;53658;50.742;10.864;2023-07-13T11:58:53;36.34;23.90;40.80;;
66747;Laerm;53658;50.742;10.864;2023-07-13T12:01:24;36.95;28.67;42.41;;
66747;Laerm;53658;50.742;10.864;2023-07-13T12:03:53;36.35;26.91;41.53;;
66747;Laerm;53658;50.742;10.864;2023-07-13T12:06:34;36.50;28.67;41.61;;
66747;Laerm;53658;50.742;10.864;2023-07-13T12:09:13;36.41;26.91;41.82;;
66747;Laerm;53658;50.742;10.864;2023-07-13T12:11:41;37.35;28.67;43.86;;
66747;Laerm;53658;50.742;10.864;2023-07-13T12:14:18;36.55;23.90;43.34;;
66747;Laerm;53658;50.742;10.864;2023-07-13T12:16:46;36.72;29.92;41.82;;
66747;Laerm;53658;50.742;10.864;2023-07-13T12:19:30;36.36;28.67;40.03;;
66747;Laerm;53658;50.742;10.864;2023-07-13T12:21:58;36.37;26.91;40.98;;
66747;Laerm;53658;50.742;10.864;2023-07-13T12:24:26;36.55;28.67;41.41;;
66747;Laerm;53658;50.742;10.864;2023-07-13T12:27:01;36.57;28.67;43.81;;
66747;Laerm;53658;50.742;10.864;2023-07-13T12:29:32;36.32;23.90;42.65;;
66747;Laerm;53658;50.742;10.864;2023-07-13T12:31:59;36.75;26.91;43.72;;
66747;Laerm;53658;50.742;10.864;2023-07-13T12:34:26;36.23;26.91;40.03;;
66747;Laerm;53658;50.742;10.864;2023-07-13T12:36:59;36.64;28.67;42.88;;
66747;Laerm;53658;50.742;10.864;2023-07-13T12:39:37;36.86;26.91;44.94;;
66747;Laerm;53658;50.742;10.864;2023-07-13T12:42:25;36.33;28.67;40.23;;
66747;Laerm;53658;50.742;10.864;2023-07-13T12:45:19;36.82;26.91;43.68;;
66747;Laerm;53658;50.742;10.864;2023-07-13T12:47:50;36.63;26.91;44.07;;
66747;Laerm;53658;50.742;10.864;2023-07-13T12:50:23;36.26;26.91;40.43;;
66747;Laerm;53658;50.742;10.864;2023-07-13T12:53:01;36.37;28.67;40.80;;
66747;Laerm;53658;50.742;10.864;2023-07-13T12:56:03;36.30;26.91;40.13;;
66747;Laerm;53658;50.742;10.864;2023-07-13T12:58:47;36.49;23.90;43.24;;
66747;Laerm;53658;50.742;10.864;2023-07-13T13:01:21;36.37;28.67;40.27;;
66747;Laerm;53658;50.742;10.864;2023-07-13T13:03:51;36.29;28.67;39.81;;
66747;Laerm;53658;50.742;10.864;2023-07-13T13:08:47;36.69;28.67;41.96;;
66747;Laerm;53658;50.742;10.864;2023-07-13T13:11:15;36.59;23.90;44.43;;
66747;Laerm;53658;50.742;10.864;2023-07-13T13:13:44;36.49;26.91;41.96;;
66747;Laerm;53658;50.742;10.864;2023-07-13T13:16:20;36.34;23.90;39.70;;
66747;Laerm;53658;50.742;10.864;2023-07-13T13:18:48;36.70;26.91;43.24;;
66747;Laerm;53658;50.742;10.864;2023-07-13T13:21:16;38.96;29.92;60.07;;
66747;Laerm;53658;50.742;10.864;2023-07-13T13:23:42;36.48;26.91;42.71;;
66747;Laerm;53658;50.742;10.864;2023-07-13T13:26:14;36.50;28.67;41.26;;
66747;Laerm;53658;50.742;10.864;2023-07-13T13:28:45;37.16;23.90;43.77;;
66747;Laerm;53658;50.742;10.864;2023-07-13T13:31:11;36.41;28.67;41.75;;
66747;Laerm;53658;50.742;10.864;2023-07-13T13:33:43;36.60;26.91;41.96;;
66747;Laerm;53658;50.742;10.864;2023-07-13T13:36:20;36.31;26.91;40.23;;
66747;Laerm;53658;50.742;10.864;2023-07-13T13:38:49;36.42;28.67;41.82;;
66747;Laerm;53658;50.742;10.864;2023-07-13T13:41:16;36.49;29.92;44.27;;
66747;Laerm;53658;50.742;10.864;2023-07-13T13:43:43;37.29;29.92;44.15;;
66747;Laerm;53658;50.742;10.864;2023-07-13T13:48:41;36.44;28.67;41.53;;
66747;Laerm;53658;50.742;10.864;2023-07-13T13:51:34;36.72;23.90;42.16;;
66747;Laerm;53658;50.742;10.864;2023-07-13T13:54:00;38.19;29.92;50.53;;
66747;Laerm;53658;50.742;10.864;2023-07-13T13:56:27;37.32;28.67;46.13;;
66747;Laerm;53658;50.742;10.864;2023-07-13T13:58:53;36.38;26.91;40.71;;
66747;Laerm;53658;50.742;10.864;2023-07-13T14:01:20;36.65;28.67;43.14;;
66747;Laerm;53658;50.742;10.864;2023-07-13T14:03:48;37.32;28.67;48.08;;
66747;Laerm;53658;50.742;10.864;2023-07-13T14:06:16;36.58;23.90;42.59;;
66747;Laerm;53658;50.742;10.864;2023-07-13T14:08:43;36.38;26.91;40.71;;
66747;Laerm;53658;50.742;10.864;2023-07-13T14:11:15;36.64;26.91;42.98;;
66747;Laerm;53658;50.742;10.864;2023-07-13T14:13:45;36.42;28.67;41.53;;
66747;Laerm;53658;50.742;10.864;2023-07-13T14:16:18;36.75;26.91;43.09;;
66747;Laerm;53658;50.742;10.864;2023-07-13T14:18:46;37.55;26.91;43.49;;
66747;Laerm;53658;50.742;10.864;2023-07-13T14:21:15;37.33;26.91;43.54;;
66747;Laerm;53658;50.742;10.864;2023-07-13T14:23:44;36.74;28.67;44.43;;
66747;Laerm;53658;50.742;10.864;2023-07-13T14:26:14;36.69;29.92;42.41;;
66747;Laerm;53658;50.742;10.864;2023-07-13T14:28:45;39.47;23.90;61.42;;
66747;Laerm;53658;50.742;10.864;2023-07-13T14:31:14;37.97;28.67;49.96;;
66747;Laerm;53658;50.742;10.864;2023-07-13T14:33:40;36.19;28.67;39.58;;